Terminal Aerodrome Forecast
Issued by NWS

Home | Current Version | Previous Version | Text Only | Print | Product List | Glossary On
Versions: 1 2 3 4 5 6 7 8 9 10 11 12 13 14 15 16
000
FTUS41 KBGM 040859 AAA
TAFRME
TAF AMD
KRME 040859Z 0409/0506 VRB03KT P6SM SCT100 SCT250
     FM041500 28010KT P6SM SCT060
     FM050000 VRB03KT P6SM BKN100=

USA.gov is the U.S. government's official web portal to all federal, state and local government web resources and services.